Villa Grove, Colorado
Current Conditions -  °F | °C
As of 11:34 PM on Thursday 18 Dec 2014 (Local Time) from K04V Reporting Station
Overcast Overcast  
Wind Chill: 10°   Ceiling: 4600
Heat Index: 19°   Visibility: 10mi
Dew Point: 16°   Wind: 7mph
Humidity: 86%   Direction: 320°NW
Pressure: 30.14"   Gusts: NA
Location:  38.25°N, 105.95°W
Report Text: K04V 190634Z AUTO 32006KT 10SM OVC046 M07/M09 A3014 RMK AO2
Loading
Personal Weather Stations






























Interactive Weather Map New forecast layout! Learn more

10-Day Weather Forecast

Advertisements
Track Severe Weather on mobile